sensor_id;sensor_type;location;lat;lon;timestamp;P1;durP1;ratioP1;P2;durP2;ratioP2
37349;SDS011;23231;52.358;4.926;2022-08-05T00:03:08;9.75;;;4.07;;
37349;SDS011;23231;52.358;4.926;2022-08-05T00:08:08;8.93;;;4.07;;
37349;SDS011;23231;52.358;4.926;2022-08-05T00:13:09;8.75;;;3.92;;
37349;SDS011;23231;52.358;4.926;2022-08-05T00:18:09;9.20;;;3.22;;
37349;SDS011;23231;52.358;4.926;2022-08-05T00:23:10;5.07;;;3.10;;
37349;SDS011;23231;52.358;4.926;2022-08-05T00:28:10;8.15;;;3.60;;
37349;SDS011;23231;52.358;4.926;2022-08-05T00:33:11;7.53;;;3.75;;
37349;SDS011;23231;52.358;4.926;2022-08-05T00:38:11;11.35;;;4.03;;
37349;SDS011;23231;52.358;4.926;2022-08-05T00:43:12;9.73;;;3.83;;
37349;SDS011;23231;52.358;4.926;2022-08-05T00:48:13;9.77;;;3.80;;
37349;SDS011;23231;52.358;4.926;2022-08-05T00:53:17;8.43;;;3.72;;
37349;SDS011;23231;52.358;4.926;2022-08-05T00:58:19;6.97;;;3.67;;
37349;SDS011;23231;52.358;4.926;2022-08-05T01:03:20;8.88;;;3.50;;
37349;SDS011;23231;52.358;4.926;2022-08-05T01:08:20;7.22;;;3.38;;
37349;SDS011;23231;52.358;4.926;2022-08-05T01:13:23;7.15;;;3.80;;
37349;SDS011;23231;52.358;4.926;2022-08-05T01:18:31;7.88;;;3.50;;
37349;SDS011;23231;52.358;4.926;2022-08-05T01:34:02;7.03;;;3.08;;
37349;SDS011;23231;52.358;4.926;2022-08-05T01:39:10;7.30;;;3.45;;
37349;SDS011;23231;52.358;4.926;2022-08-05T01:44:11;7.63;;;3.20;;
37349;SDS011;23231;52.358;4.926;2022-08-05T01:49:14;7.68;;;2.90;;
37349;SDS011;23231;52.358;4.926;2022-08-05T01:54:17;5.85;;;2.78;;
37349;SDS011;23231;52.358;4.926;2022-08-05T01:59:19;6.28;;;2.92;;
37349;SDS011;23231;52.358;4.926;2022-08-05T02:04:21;6.82;;;3.47;;
37349;SDS011;23231;52.358;4.926;2022-08-05T02:09:23;8.70;;;2.90;;
37349;SDS011;23231;52.358;4.926;2022-08-05T02:14:31;5.97;;;2.63;;
37349;SDS011;23231;52.358;4.926;2022-08-05T02:19:34;4.47;;;2.50;;
37349;SDS011;23231;52.358;4.926;2022-08-05T02:24:37;8.80;;;3.10;;
37349;SDS011;23231;52.358;4.926;2022-08-05T02:29:40;7.25;;;2.72;;
37349;SDS011;23231;52.358;4.926;2022-08-05T02:34:42;6.82;;;3.28;;
37349;SDS011;23231;52.358;4.926;2022-08-05T02:39:42;7.38;;;2.90;;
37349;SDS011;23231;52.358;4.926;2022-08-05T02:44:45;7.53;;;3.10;;
37349;SDS011;23231;52.358;4.926;2022-08-05T02:49:45;8.15;;;2.78;;
37349;SDS011;23231;52.358;4.926;2022-08-05T02:54:47;8.13;;;2.45;;
37349;SDS011;23231;52.358;4.926;2022-08-05T02:59:48;4.13;;;2.42;;
37349;SDS011;23231;52.358;4.926;2022-08-05T03:04:49;8.75;;;2.72;;
37349;SDS011;23231;52.358;4.926;2022-08-05T03:09:51;5.50;;;2.88;;
37349;SDS011;23231;52.358;4.926;2022-08-05T03:14:51;6.47;;;2.70;;
37349;SDS011;23231;52.358;4.926;2022-08-05T03:19:51;7.93;;;2.65;;
37349;SDS011;23231;52.358;4.926;2022-08-05T03:24:52;5.30;;;2.42;;
37349;SDS011;23231;52.358;4.926;2022-08-05T03:29:52;8.68;;;2.75;;
37349;SDS011;23231;52.358;4.926;2022-08-05T03:34:53;6.32;;;2.60;;
37349;SDS011;23231;52.358;4.926;2022-08-05T03:39:54;5.95;;;2.40;;
37349;SDS011;23231;52.358;4.926;2022-08-05T03:44:55;8.20;;;2.42;;
37349;SDS011;23231;52.358;4.926;2022-08-05T03:49:56;5.30;;;2.45;;
37349;SDS011;23231;52.358;4.926;2022-08-05T03:54:57;6.95;;;2.60;;
37349;SDS011;23231;52.358;4.926;2022-08-05T04:00:03;5.55;;;2.80;;
37349;SDS011;23231;52.358;4.926;2022-08-05T04:05:05;4.85;;;2.28;;
37349;SDS011;23231;52.358;4.926;2022-08-05T04:10:07;5.18;;;2.42;;
37349;SDS011;23231;52.358;4.926;2022-08-05T04:15:09;4.25;;;2.67;;
37349;SDS011;23231;52.358;4.926;2022-08-05T04:20:20;6.43;;;2.80;;
37349;SDS011;23231;52.358;4.926;2022-08-05T04:25:21;5.50;;;2.45;;
37349;SDS011;23231;52.358;4.926;2022-08-05T04:30:22;4.40;;;2.30;;
37349;SDS011;23231;52.358;4.926;2022-08-05T04:35:23;4.43;;;2.30;;
37349;SDS011;23231;52.358;4.926;2022-08-05T04:40:23;6.55;;;2.45;;
37349;SDS011;23231;52.358;4.926;2022-08-05T04:45:23;6.60;;;2.42;;
37349;SDS011;23231;52.358;4.926;2022-08-05T04:50:25;6.30;;;2.45;;
37349;SDS011;23231;52.358;4.926;2022-08-05T04:55:25;4.55;;;2.38;;
37349;SDS011;23231;52.358;4.926;2022-08-05T05:00:25;3.58;;;2.38;;
37349;SDS011;23231;52.358;4.926;2022-08-05T05:05:26;5.32;;;2.50;;
37349;SDS011;23231;52.358;4.926;2022-08-05T05:10:27;4.30;;;2.13;;
37349;SDS011;23231;52.358;4.926;2022-08-05T05:15:28;5.53;;;2.17;;
37349;SDS011;23231;52.358;4.926;2022-08-05T05:20:29;5.00;;;2.30;;
37349;SDS011;23231;52.358;4.926;2022-08-05T05:25:29;7.15;;;2.17;;
37349;SDS011;23231;52.358;4.926;2022-08-05T05:30:30;4.22;;;2.10;;
37349;SDS011;23231;52.358;4.926;2022-08-05T05:35:30;4.47;;;2.17;;
37349;SDS011;23231;52.358;4.926;2022-08-05T05:40:31;4.32;;;1.98;;
37349;SDS011;23231;52.358;4.926;2022-08-05T05:45:32;4.90;;;2.25;;
37349;SDS011;23231;52.358;4.926;2022-08-05T05:50:33;3.47;;;1.80;;
37349;SDS011;23231;52.358;4.926;2022-08-05T05:55:34;4.28;;;1.90;;
37349;SDS011;23231;52.358;4.926;2022-08-05T06:00:35;5.55;;;1.90;;
37349;SDS011;23231;52.358;4.926;2022-08-05T06:05:35;6.65;;;1.95;;
37349;SDS011;23231;52.358;4.926;2022-08-05T06:10:35;3.08;;;1.70;;
37349;SDS011;23231;52.358;4.926;2022-08-05T06:15:36;4.22;;;1.90;;
37349;SDS011;23231;52.358;4.926;2022-08-05T06:20:36;5.47;;;1.70;;
37349;SDS011;23231;52.358;4.926;2022-08-05T06:25:37;2.92;;;1.58;;
37349;SDS011;23231;52.358;4.926;2022-08-05T06:30:37;5.22;;;1.60;;
37349;SDS011;23231;52.358;4.926;2022-08-05T06:35:37;4.05;;;1.38;;
37349;SDS011;23231;52.358;4.926;2022-08-05T06:40:39;8.32;;;1.95;;
37349;SDS011;23231;52.358;4.926;2022-08-05T06:45:41;3.85;;;1.60;;
37349;SDS011;23231;52.358;4.926;2022-08-05T06:50:41;4.55;;;1.88;;
37349;SDS011;23231;52.358;4.926;2022-08-05T06:55:42;5.88;;;1.70;;
37349;SDS011;23231;52.358;4.926;2022-08-05T07:00:42;3.72;;;1.60;;
37349;SDS011;23231;52.358;4.926;2022-08-05T07:05:43;5.70;;;1.52;;
37349;SDS011;23231;52.358;4.926;2022-08-05T07:10:43;3.50;;;1.58;;
37349;SDS011;23231;52.358;4.926;2022-08-05T07:15:44;4.90;;;1.60;;
37349;SDS011;23231;52.358;4.926;2022-08-05T07:21:04;5.85;;;1.77;;
37349;SDS011;23231;52.358;4.926;2022-08-05T07:26:05;6.57;;;1.80;;
37349;SDS011;23231;52.358;4.926;2022-08-05T07:31:05;4.82;;;1.20;;
37349;SDS011;23231;52.358;4.926;2022-08-05T07:36:06;4.32;;;1.42;;
37349;SDS011;23231;52.358;4.926;2022-08-05T07:41:08;3.25;;;1.27;;
37349;SDS011;23231;52.358;4.926;2022-08-05T07:46:10;2.42;;;1.10;;
37349;SDS011;23231;52.358;4.926;2022-08-05T07:51:11;3.17;;;1.50;;
37349;SDS011;23231;52.358;4.926;2022-08-05T07:56:11;2.72;;;1.10;;
37349;SDS011;23231;52.358;4.926;2022-08-05T08:01:12;4.05;;;1.13;;
37349;SDS011;23231;52.358;4.926;2022-08-05T08:06:13;3.30;;;1.23;;
37349;SDS011;23231;52.358;4.926;2022-08-05T08:11:13;5.13;;;1.20;;
37349;SDS011;23231;52.358;4.926;2022-08-05T08:16:14;3.42;;;0.85;;
37349;SDS011;23231;52.358;4.926;2022-08-05T08:21:14;2.97;;;0.88;;
37349;SDS011;23231;52.358;4.926;2022-08-05T08:26:15;2.42;;;0.80;;
37349;SDS011;23231;52.358;4.926;2022-08-05T08:31:15;3.85;;;0.75;;
37349;SDS011;23231;52.358;4.926;2022-08-05T08:36:17;2.55;;;0.75;;
37349;SDS011;23231;52.358;4.926;2022-08-05T08:41:18;3.15;;;0.63;;
37349;SDS011;23231;52.358;4.926;2022-08-05T08:46:18;2.35;;;0.70;;
37349;SDS011;23231;52.358;4.926;2022-08-05T08:51:19;4.55;;;1.60;;
37349;SDS011;23231;52.358;4.926;2022-08-05T08:56:21;4.35;;;0.90;;
37349;SDS011;23231;52.358;4.926;2022-08-05T09:01:22;1.65;;;0.65;;
37349;SDS011;23231;52.358;4.926;2022-08-05T09:06:26;2.25;;;0.47;;
37349;SDS011;23231;52.358;4.926;2022-08-05T09:11:28;1.13;;;0.55;;
37349;SDS011;23231;52.358;4.926;2022-08-05T09:16:29;3.83;;;0.73;;
37349;SDS011;23231;52.358;4.926;2022-08-05T09:21:29;2.67;;;0.60;;
37349;SDS011;23231;52.358;4.926;2022-08-05T09:26:30;1.55;;;0.63;;
37349;SDS011;23231;52.358;4.926;2022-08-05T09:31:31;2.08;;;0.80;;
37349;SDS011;23231;52.358;4.926;2022-08-05T09:36:47;3.05;;;1.15;;
37349;SDS011;23231;52.358;4.926;2022-08-05T09:42:00;3.55;;;0.70;;
37349;SDS011;23231;52.358;4.926;2022-08-05T09:47:10;1.83;;;0.70;;
37349;SDS011;23231;52.358;4.926;2022-08-05T09:52:24;3.13;;;0.70;;
37349;SDS011;23231;52.358;4.926;2022-08-05T10:02:45;2.83;;;0.70;;
37349;SDS011;23231;52.358;4.926;2022-08-05T10:12:59;4.25;;;0.93;;
37349;SDS011;23231;52.358;4.926;2022-08-05T10:23:12;5.07;;;1.30;;
37349;SDS011;23231;52.358;4.926;2022-08-05T10:28:14;2.15;;;0.85;;
37349;SDS011;23231;52.358;4.926;2022-08-05T10:33:15;4.95;;;1.08;;
37349;SDS011;23231;52.358;4.926;2022-08-05T10:38:17;4.47;;;1.90;;
37349;SDS011;23231;52.358;4.926;2022-08-05T10:48:36;2.40;;;0.90;;
37349;SDS011;23231;52.358;4.926;2022-08-05T10:54:15;4.65;;;1.10;;
37349;SDS011;23231;52.358;4.926;2022-08-05T10:59:08;6.40;;;1.45;;
37349;SDS011;23231;52.358;4.926;2022-08-05T11:04:09;2.30;;;0.80;;
37349;SDS011;23231;52.358;4.926;2022-08-05T11:09:17;6.47;;;1.20;;
37349;SDS011;23231;52.358;4.926;2022-08-05T11:19:29;2.92;;;0.73;;
37349;SDS011;23231;52.358;4.926;2022-08-05T11:24:30;4.95;;;1.70;;
37349;SDS011;23231;52.358;4.926;2022-08-05T11:29:37;4.82;;;1.25;;
37349;SDS011;23231;52.358;4.926;2022-08-05T11:34:40;5.80;;;1.00;;
37349;SDS011;23231;52.358;4.926;2022-08-05T11:39:50;4.95;;;1.30;;
37349;SDS011;23231;52.358;4.926;2022-08-05T11:44:51;6.05;;;1.15;;
37349;SDS011;23231;52.358;4.926;2022-08-05T11:49:58;4.78;;;1.30;;
37349;SDS011;23231;52.358;4.926;2022-08-05T11:54:59;6.22;;;1.55;;
37349;SDS011;23231;52.358;4.926;2022-08-05T12:00:00;4.28;;;1.00;;
37349;SDS011;23231;52.358;4.926;2022-08-05T12:05:02;4.75;;;1.33;;
37349;SDS011;23231;52.358;4.926;2022-08-05T12:10:03;3.45;;;1.33;;
37349;SDS011;23231;52.358;4.926;2022-08-05T12:15:04;3.80;;;1.60;;
37349;SDS011;23231;52.358;4.926;2022-08-05T12:20:05;5.72;;;1.63;;
37349;SDS011;23231;52.358;4.926;2022-08-05T12:25:06;4.78;;;1.45;;
37349;SDS011;23231;52.358;4.926;2022-08-05T12:30:07;2.50;;;1.13;;
37349;SDS011;23231;52.358;4.926;2022-08-05T12:35:09;5.22;;;1.58;;
37349;SDS011;23231;52.358;4.926;2022-08-05T12:40:10;2.72;;;0.98;;
37349;SDS011;23231;52.358;4.926;2022-08-05T12:45:11;2.15;;;0.98;;
37349;SDS011;23231;52.358;4.926;2022-08-05T12:50:13;6.88;;;1.20;;
37349;SDS011;23231;52.358;4.926;2022-08-05T12:55:15;4.47;;;1.20;;
37349;SDS011;23231;52.358;4.926;2022-08-05T13:00:20;3.50;;;1.10;;
37349;SDS011;23231;52.358;4.926;2022-08-05T13:05:22;4.47;;;0.70;;
37349;SDS011;23231;52.358;4.926;2022-08-05T13:10:23;2.97;;;0.95;;
37349;SDS011;23231;52.358;4.926;2022-08-05T13:15:28;4.78;;;0.88;;
37349;SDS011;23231;52.358;4.926;2022-08-05T13:20:34;3.80;;;1.50;;
37349;SDS011;23231;52.358;4.926;2022-08-05T13:25:35;2.43;;;0.73;;
37349;SDS011;23231;52.358;4.926;2022-08-05T13:30:35;4.15;;;0.75;;
37349;SDS011;23231;52.358;4.926;2022-08-05T13:35:36;3.78;;;1.00;;
37349;SDS011;23231;52.358;4.926;2022-08-05T13:40:36;4.10;;;1.27;;
37349;SDS011;23231;52.358;4.926;2022-08-05T13:45:36;4.70;;;0.90;;
37349;SDS011;23231;52.358;4.926;2022-08-05T13:50:37;6.50;;;1.73;;
37349;SDS011;23231;52.358;4.926;2022-08-05T13:55:38;4.22;;;1.10;;
37349;SDS011;23231;52.358;4.926;2022-08-05T14:00:38;5.57;;;1.25;;
37349;SDS011;23231;52.358;4.926;2022-08-05T14:05:38;7.35;;;1.30;;
37349;SDS011;23231;52.358;4.926;2022-08-05T14:10:39;4.05;;;0.90;;
37349;SDS011;23231;52.358;4.926;2022-08-05T14:15:39;4.55;;;0.98;;
37349;SDS011;23231;52.358;4.926;2022-08-05T14:20:40;5.45;;;1.00;;
37349;SDS011;23231;52.358;4.926;2022-08-05T14:25:40;3.80;;;1.08;;
37349;SDS011;23231;52.358;4.926;2022-08-05T14:30:41;3.38;;;0.85;;
37349;SDS011;23231;52.358;4.926;2022-08-05T14:35:41;6.50;;;1.13;;
37349;SDS011;23231;52.358;4.926;2022-08-05T14:40:41;3.85;;;1.20;;
37349;SDS011;23231;52.358;4.926;2022-08-05T14:45:42;5.78;;;1.38;;
37349;SDS011;23231;52.358;4.926;2022-08-05T14:50:42;5.60;;;1.60;;
37349;SDS011;23231;52.358;4.926;2022-08-05T14:55:43;4.75;;;1.25;;
37349;SDS011;23231;52.358;4.926;2022-08-05T15:00:43;5.40;;;1.30;;
37349;SDS011;23231;52.358;4.926;2022-08-05T15:05:44;4.88;;;1.40;;
37349;SDS011;23231;52.358;4.926;2022-08-05T15:10:44;5.88;;;1.40;;
37349;SDS011;23231;52.358;4.926;2022-08-05T15:15:44;3.83;;;1.20;;
37349;SDS011;23231;52.358;4.926;2022-08-05T15:20:45;4.53;;;1.40;;
37349;SDS011;23231;52.358;4.926;2022-08-05T15:25:45;9.55;;;1.52;;
37349;SDS011;23231;52.358;4.926;2022-08-05T15:30:46;5.53;;;0.90;;
37349;SDS011;23231;52.358;4.926;2022-08-05T15:35:46;5.90;;;1.40;;
37349;SDS011;23231;52.358;4.926;2022-08-05T15:40:47;4.43;;;1.17;;
37349;SDS011;23231;52.358;4.926;2022-08-05T15:45:47;3.42;;;1.13;;
37349;SDS011;23231;52.358;4.926;2022-08-05T15:50:48;3.42;;;1.10;;
37349;SDS011;23231;52.358;4.926;2022-08-05T15:55:48;5.38;;;1.63;;
37349;SDS011;23231;52.358;4.926;2022-08-05T16:00:48;4.30;;;1.27;;
37349;SDS011;23231;52.358;4.926;2022-08-05T16:05:49;4.32;;;1.17;;
37349;SDS011;23231;52.358;4.926;2022-08-05T16:10:49;3.60;;;1.00;;
37349;SDS011;23231;52.358;4.926;2022-08-05T16:15:50;5.43;;;1.85;;
37349;SDS011;23231;52.358;4.926;2022-08-05T16:20:53;5.25;;;1.75;;
37349;SDS011;23231;52.358;4.926;2022-08-05T16:26:08;3.40;;;0.93;;
37349;SDS011;23231;52.358;4.926;2022-08-05T16:31:09;3.70;;;1.00;;
37349;SDS011;23231;52.358;4.926;2022-08-05T16:36:09;6.25;;;1.45;;
37349;SDS011;23231;52.358;4.926;2022-08-05T16:41:10;4.63;;;1.40;;
37349;SDS011;23231;52.358;4.926;2022-08-05T16:46:10;8.32;;;2.22;;
37349;SDS011;23231;52.358;4.926;2022-08-05T16:51:10;9.35;;;4.85;;
37349;SDS011;23231;52.358;4.926;2022-08-05T16:56:11;7.40;;;1.58;;
37349;SDS011;23231;52.358;4.926;2022-08-05T17:01:11;6.97;;;2.05;;
37349;SDS011;23231;52.358;4.926;2022-08-05T17:06:12;7.05;;;1.67;;
37349;SDS011;23231;52.358;4.926;2022-08-05T17:11:12;6.20;;;1.42;;
37349;SDS011;23231;52.358;4.926;2022-08-05T17:16:13;4.22;;;1.35;;
37349;SDS011;23231;52.358;4.926;2022-08-05T17:21:13;8.88;;;2.20;;
37349;SDS011;23231;52.358;4.926;2022-08-05T17:26:14;5.40;;;1.45;;
37349;SDS011;23231;52.358;4.926;2022-08-05T17:31:14;7.78;;;1.77;;
37349;SDS011;23231;52.358;4.926;2022-08-05T17:36:15;7.28;;;1.65;;
37349;SDS011;23231;52.358;4.926;2022-08-05T17:41:15;4.85;;;1.25;;
37349;SDS011;23231;52.358;4.926;2022-08-05T17:46:16;9.75;;;3.35;;
37349;SDS011;23231;52.358;4.926;2022-08-05T17:51:16;4.97;;;1.95;;
37349;SDS011;23231;52.358;4.926;2022-08-05T17:56:17;7.90;;;1.80;;
37349;SDS011;23231;52.358;4.926;2022-08-05T18:01:17;6.00;;;1.60;;
37349;SDS011;23231;52.358;4.926;2022-08-05T18:06:18;4.78;;;1.48;;
37349;SDS011;23231;52.358;4.926;2022-08-05T18:11:19;5.20;;;1.48;;
37349;SDS011;23231;52.358;4.926;2022-08-05T18:16:20;10.23;;;1.92;;
37349;SDS011;23231;52.358;4.926;2022-08-05T18:21:20;6.93;;;1.92;;
37349;SDS011;23231;52.358;4.926;2022-08-05T18:26:24;9.13;;;3.28;;
37349;SDS011;23231;52.358;4.926;2022-08-05T18:31:25;13.45;;;7.13;;
37349;SDS011;23231;52.358;4.926;2022-08-05T18:36:25;5.20;;;1.60;;
37349;SDS011;23231;52.358;4.926;2022-08-05T18:41:26;8.70;;;2.10;;
37349;SDS011;23231;52.358;4.926;2022-08-05T18:46:26;7.10;;;1.95;;
37349;SDS011;23231;52.358;4.926;2022-08-05T18:51:27;11.25;;;3.30;;
37349;SDS011;23231;52.358;4.926;2022-08-05T18:56:46;9.60;;;2.28;;
37349;SDS011;23231;52.358;4.926;2022-08-05T19:01:47;4.88;;;1.50;;
37349;SDS011;23231;52.358;4.926;2022-08-05T19:06:54;7.20;;;2.38;;
37349;SDS011;23231;52.358;4.926;2022-08-05T19:11:54;9.20;;;2.10;;
37349;SDS011;23231;52.358;4.926;2022-08-05T19:16:54;5.25;;;1.60;;
37349;SDS011;23231;52.358;4.926;2022-08-05T19:21:55;8.60;;;2.00;;
37349;SDS011;23231;52.358;4.926;2022-08-05T19:26:55;7.55;;;1.73;;
37349;SDS011;23231;52.358;4.926;2022-08-05T19:31:56;7.18;;;1.90;;
37349;SDS011;23231;52.358;4.926;2022-08-05T19:36:56;7.40;;;1.58;;
37349;SDS011;23231;52.358;4.926;2022-08-05T19:41:57;7.55;;;1.85;;
37349;SDS011;23231;52.358;4.926;2022-08-05T19:46:57;5.55;;;1.90;;
37349;SDS011;23231;52.358;4.926;2022-08-05T19:51:58;6.72;;;1.90;;
37349;SDS011;23231;52.358;4.926;2022-08-05T19:57:00;3.97;;;1.60;;
37349;SDS011;23231;52.358;4.926;2022-08-05T20:02:02;7.43;;;2.25;;
37349;SDS011;23231;52.358;4.926;2022-08-05T20:07:02;6.10;;;1.90;;
37349;SDS011;23231;52.358;4.926;2022-08-05T20:12:03;7.90;;;1.65;;
37349;SDS011;23231;52.358;4.926;2022-08-05T20:17:03;5.75;;;1.60;;
37349;SDS011;23231;52.358;4.926;2022-08-05T20:22:05;8.68;;;1.80;;
37349;SDS011;23231;52.358;4.926;2022-08-05T20:27:05;5.85;;;1.30;;
37349;SDS011;23231;52.358;4.926;2022-08-05T20:32:06;6.22;;;1.70;;
37349;SDS011;23231;52.358;4.926;2022-08-05T20:37:06;9.13;;;1.65;;
37349;SDS011;23231;52.358;4.926;2022-08-05T20:42:07;9.98;;;1.55;;
37349;SDS011;23231;52.358;4.926;2022-08-05T20:47:07;12.02;;;2.42;;
37349;SDS011;23231;52.358;4.926;2022-08-05T20:52:08;7.32;;;1.67;;
37349;SDS011;23231;52.358;4.926;2022-08-05T20:57:08;6.40;;;1.95;;
37349;SDS011;23231;52.358;4.926;2022-08-05T21:02:09;6.93;;;1.85;;
37349;SDS011;23231;52.358;4.926;2022-08-05T21:07:10;4.90;;;1.40;;
37349;SDS011;23231;52.358;4.926;2022-08-05T21:12:10;6.97;;;1.70;;
37349;SDS011;23231;52.358;4.926;2022-08-05T21:17:12;8.98;;;2.25;;
37349;SDS011;23231;52.358;4.926;2022-08-05T21:22:18;9.15;;;2.15;;
37349;SDS011;23231;52.358;4.926;2022-08-05T21:27:19;11.70;;;2.50;;
37349;SDS011;23231;52.358;4.926;2022-08-05T21:32:20;10.13;;;1.92;;
37349;SDS011;23231;52.358;4.926;2022-08-05T21:37:21;7.68;;;2.10;;
37349;SDS011;23231;52.358;4.926;2022-08-05T21:42:21;8.38;;;1.50;;
37349;SDS011;23231;52.358;4.926;2022-08-05T21:47:22;8.20;;;1.80;;
37349;SDS011;23231;52.358;4.926;2022-08-05T21:52:24;6.45;;;1.80;;
37349;SDS011;23231;52.358;4.926;2022-08-05T21:57:25;6.60;;;1.60;;
37349;SDS011;23231;52.358;4.926;2022-08-05T22:02:25;9.63;;;1.63;;
37349;SDS011;23231;52.358;4.926;2022-08-05T22:07:25;6.65;;;1.40;;
37349;SDS011;23231;52.358;4.926;2022-08-05T22:12:26;6.10;;;1.50;;
37349;SDS011;23231;52.358;4.926;2022-08-05T22:17:26;7.43;;;1.67;;
37349;SDS011;23231;52.358;4.926;2022-08-05T22:22:27;7.45;;;2.00;;
37349;SDS011;23231;52.358;4.926;2022-08-05T22:27:27;6.63;;;1.70;;
37349;SDS011;23231;52.358;4.926;2022-08-05T22:32:43;5.97;;;1.80;;
37349;SDS011;23231;52.358;4.926;2022-08-05T22:37:43;6.00;;;1.67;;
37349;SDS011;23231;52.358;4.926;2022-08-05T22:42:44;7.70;;;2.10;;
37349;SDS011;23231;52.358;4.926;2022-08-05T22:47:44;7.93;;;1.95;;
37349;SDS011;23231;52.358;4.926;2022-08-05T22:52:45;8.88;;;2.22;;
37349;SDS011;23231;52.358;4.926;2022-08-05T22:57:46;2.65;;;1.40;;
37349;SDS011;23231;52.358;4.926;2022-08-05T23:02:48;3.85;;;1.70;;
37349;SDS011;23231;52.358;4.926;2022-08-05T23:07:50;3.72;;;1.70;;
37349;SDS011;23231;52.358;4.926;2022-08-05T23:12:51;3.67;;;1.40;;
37349;SDS011;23231;52.358;4.926;2022-08-05T23:17:52;5.10;;;1.50;;
37349;SDS011;23231;52.358;4.926;2022-08-05T23:22:53;3.55;;;1.52;;
37349;SDS011;23231;52.358;4.926;2022-08-05T23:27:54;4.82;;;1.70;;
37349;SDS011;23231;52.358;4.926;2022-08-05T23:32:54;5.43;;;1.50;;
37349;SDS011;23231;52.358;4.926;2022-08-05T23:37:55;6.43;;;1.58;;
37349;SDS011;23231;52.358;4.926;2022-08-05T23:42:55;6.65;;;2.00;;
37349;SDS011;23231;52.358;4.926;2022-08-05T23:47:55;6.93;;;2.45;;
37349;SDS011;23231;52.358;4.926;2022-08-05T23:52:56;6.40;;;1.70;;
37349;SDS011;23231;52.358;4.926;2022-08-05T23:57:56;7.05;;;2.17;;
